createdAt,value
2017-05-11T00:00:12.860Z,0
2017-05-11T00:10:12.836Z,0
2017-05-11T00:20:12.869Z,0
2017-05-11T00:30:12.928Z,0
2017-05-11T00:40:12.844Z,0
2017-05-11T00:50:12.841Z,0
2017-05-11T01:00:12.840Z,0
2017-05-11T01:10:12.873Z,0
2017-05-11T01:20:12.822Z,0
2017-05-11T01:30:12.816Z,0
2017-05-11T01:40:12.864Z,0
2017-05-11T01:50:12.821Z,0
2017-05-11T02:00:12.872Z,0
2017-05-11T02:10:12.813Z,0
2017-05-11T02:20:12.818Z,0
2017-05-11T02:30:12.876Z,0
2017-05-11T02:40:12.810Z,0
2017-05-11T02:50:12.934Z,0
2017-05-11T03:00:12.816Z,0
2017-05-11T03:10:12.800Z,0
2017-05-11T03:20:12.877Z,0
2017-05-11T03:30:12.824Z,0
2017-05-11T03:40:12.780Z,5
2017-05-11T03:50:12.872Z,10
2017-05-11T04:00:12.866Z,20
2017-05-11T04:10:12.777Z,40
2017-05-11T04:20:12.841Z,55
2017-05-11T04:30:12.779Z,70
2017-05-11T04:40:12.883Z,95
2017-05-11T04:50:12.774Z,110
2017-05-11T05:00:12.774Z,110
2017-05-11T05:10:12.837Z,110
2017-05-11T05:20:12.846Z,125
2017-05-11T05:30:12.897Z,140
2017-05-11T05:40:12.864Z,150
2017-05-11T05:50:12.825Z,155
2017-05-11T06:00:12.776Z,170
2017-05-11T06:10:12.779Z,175
2017-05-11T06:20:12.896Z,185
2017-05-11T06:30:12.754Z,235
2017-05-11T06:40:12.757Z,445
2017-05-11T06:50:12.795Z,1105
2017-05-11T07:00:12.767Z,1125
2017-05-11T07:10:12.764Z,1150
2017-05-11T07:20:12.877Z,1275
2017-05-11T07:30:12.845Z,1315
2017-05-11T07:40:12.869Z,1265
2017-05-11T07:50:12.971Z,1360
2017-05-11T08:00:12.945Z,1580
2017-05-11T08:10:12.953Z,1830
2017-05-11T08:20:16.433Z,1745
2017-05-11T08:30:12.818Z,1750
2017-05-11T08:40:12.808Z,1480
2017-05-11T08:50:12.937Z,220
2017-05-11T09:00:13.023Z,175
2017-05-11T09:10:12.896Z,170
2017-05-11T09:20:12.908Z,165
2017-05-11T09:30:12.875Z,165
2017-05-11T09:40:12.809Z,160
2017-05-11T09:50:12.912Z,165
2017-05-11T10:00:12.873Z,170
2017-05-11T10:10:12.827Z,190
2017-05-11T10:20:12.814Z,205
2017-05-11T10:30:12.811Z,200
2017-05-11T10:40:12.851Z,190
2017-05-11T10:50:12.864Z,205
2017-05-11T11:00:12.900Z,170
2017-05-11T11:10:12.856Z,205
2017-05-11T11:20:12.836Z,185
2017-05-11T11:30:12.873Z,195
2017-05-11T11:40:12.825Z,205
2017-05-11T11:50:12.866Z,235
2017-05-11T12:00:12.859Z,330
2017-05-11T12:10:12.884Z,305
2017-05-11T12:20:12.844Z,285
2017-05-11T12:30:12.859Z,430
2017-05-11T12:40:12.855Z,410
2017-05-11T12:50:12.832Z,350
2017-05-11T13:00:12.883Z,300
2017-05-11T13:10:12.867Z,330
2017-05-11T13:20:12.891Z,330
2017-05-11T13:30:12.865Z,335
2017-05-11T13:40:12.858Z,335
2017-05-11T13:50:12.900Z,320
2017-05-11T14:00:12.894Z,265
2017-05-11T14:10:12.864Z,300
2017-05-11T14:20:12.888Z,275
2017-05-11T14:30:12.879Z,235
2017-05-11T14:40:12.870Z,170
2017-05-11T14:50:12.880Z,350
2017-05-11T15:00:12.919Z,345
2017-05-11T15:10:12.892Z,295
2017-05-11T15:20:12.923Z,250
2017-05-11T15:30:12.893Z,190
2017-05-11T15:40:12.884Z,190
2017-05-11T15:50:12.894Z,200
2017-05-11T16:00:12.888Z,205
2017-05-11T16:10:12.908Z,195
2017-05-11T16:20:12.926Z,190
2017-05-11T16:30:12.892Z,175
2017-05-11T16:40:12.906Z,160
2017-05-11T16:50:12.904Z,145
2017-05-11T17:00:12.893Z,160
2017-05-11T17:10:12.958Z,115
2017-05-11T17:20:12.952Z,100
2017-05-11T17:30:12.956Z,85
2017-05-11T17:40:12.995Z,90
2017-05-11T17:50:13.001Z,85
2017-05-11T18:00:12.957Z,55
2017-05-11T18:10:12.929Z,40
2017-05-11T18:20:13.364Z,20
2017-05-11T18:30:13.797Z,20
2017-05-11T18:40:13.233Z,15
2017-05-11T18:50:13.039Z,5
2017-05-11T19:00:13.236Z,0
2017-05-11T19:10:13.025Z,0
2017-05-11T19:20:13.059Z,0
2017-05-11T19:30:13.097Z,0
2017-05-11T19:40:12.954Z,0
2017-05-11T19:50:12.964Z,0
2017-05-11T20:00:13.220Z,0
2017-05-11T20:10:13.993Z,0
2017-05-11T20:20:13.616Z,0
2017-05-11T20:30:13.549Z,0
2017-05-11T20:40:13.566Z,0
2017-05-11T20:50:13.431Z,0
2017-05-11T21:00:13.526Z,0
2017-05-11T21:10:13.962Z,0
2017-05-11T21:20:13.763Z,0
2017-05-11T21:30:13.628Z,0
2017-05-11T21:40:13.967Z,0
2017-05-11T21:50:13.174Z,0
2017-05-11T22:00:15.081Z,0
2017-05-11T22:10:13.924Z,0
2017-05-11T22:20:13.186Z,0
2017-05-11T22:30:13.169Z,0
2017-05-11T22:40:23.030Z,0
2017-05-11T22:50:13.212Z,0
2017-05-11T23:00:13.195Z,0
2017-05-11T23:10:13.258Z,0
2017-05-11T23:20:13.237Z,0
2017-05-11T23:30:13.237Z,0
2017-05-11T23:40:13.182Z,0
2017-05-11T23:50:13.373Z,0
